Newark Liberty International Airport
KEWR : now visible

Airfield :











YOU CAN JOIN US ON...

 
LOGIN :

Register | Disclaimer

   EN    FR    IT 

 









Legend :    VFR   Marginal VFR   IFR   Intensive IFR   Very Intensive IFR
Visi :
Ceiling :
>= 8 km
>= 3000ft
5 to 8 km
1000 to 3000 ft
1500m to 5 km
500 to 1000 ft
800 to 1500m
200 to 500 ft
< 800m
< 200 ft
Symbols :   Thunderstorms  Fog  Heavy snow  Heavy precipitations  Wind > 20 kt






- Airport Elevation : 18 ft
- IATA code : EWR


KEWR - Newark Liberty International

CURRENT METAR :
  • 230151Z 27008KT 10SM FEW050 SCT070 02/M02 A2987 RMK AO2 SLP114 T00221022

EXPIRED METARs :
  • 230051Z 28010KT 10SM FEW045 FEW070 SCT090 03/M03 A2985 RMK AO2 SLP109 T00281028
  • 222351Z 28012KT 10SM FEW050 BKN070 BKN090 04/M04 A2984 RMK AO2 SLP103 VCSH SE-SW T00441044 10089 20044 53029

TAF KEWR
Valid from the 23 at 00:00 until the 24 at 06:00 UTC


222341Z 2300/2406 31015G22KT P6SM VCSH SCT020 SCT100
FM230300 30015G22KT P6SM SCT020 SCT040 SCT100
FM231200 30017G28KT P6SM SCT040
FM231600 31022G32KT P6SM SCT010 SCT040
FM240500 30014G22KT P6SM SKC
KZNY FIR / North America



MET'MAP, your aeronautical weather chart ! - Copyright ORBIFLY December 2007 - Disclaimer

ORBIFLY MET'MAP TEAM :

Programming & Development : Alexandra Zaïnal
Concept & original design : Baudouin d'Aumeries
Assistance for programming : Marc-Olivier Méhu
Technical & hardware support : Manuel Goepfert

Contact : metmap@orbifly.com




SOURCES & CREDITS :

   NOAA       Earth
Advisory